createdAt,value
2022-10-01T00:00:53.644Z,0
2022-10-01T00:01:53.739Z,0
2022-10-01T00:02:53.720Z,0
2022-10-01T00:03:53.654Z,0
2022-10-01T00:04:53.679Z,0
2022-10-01T00:05:53.658Z,0
2022-10-01T00:06:53.666Z,0
2022-10-01T00:07:53.680Z,0
2022-10-01T00:08:53.656Z,0
2022-10-01T00:09:53.683Z,0
2022-10-01T00:10:53.694Z,0
2022-10-01T00:11:53.662Z,0
2022-10-01T00:12:53.654Z,0
2022-10-01T00:13:53.706Z,0
2022-10-01T00:14:53.672Z,0
2022-10-01T00:15:53.656Z,0
2022-10-01T00:16:53.673Z,0
2022-10-01T00:17:53.676Z,0
2022-10-01T00:18:53.670Z,0
2022-10-01T00:19:53.675Z,0
2022-10-01T00:20:53.665Z,0
2022-10-01T00:21:53.664Z,0
2022-10-01T00:22:53.669Z,0
2022-10-01T00:23:53.655Z,0
2022-10-01T00:24:53.828Z,0
2022-10-01T00:25:53.666Z,0
2022-10-01T00:26:53.661Z,0
2022-10-01T00:27:53.706Z,0
2022-10-01T00:28:53.670Z,0
2022-10-01T00:29:53.668Z,0
2022-10-01T00:30:53.644Z,0
2022-10-01T00:31:53.701Z,0
2022-10-01T00:32:53.665Z,0
2022-10-01T00:33:53.661Z,0
2022-10-01T00:34:53.674Z,0
2022-10-01T00:35:53.659Z,0
2022-10-01T00:36:53.663Z,0
2022-10-01T00:37:53.644Z,0
2022-10-01T00:38:53.646Z,0
2022-10-01T00:39:53.664Z,0
2022-10-01T00:40:53.653Z,0
2022-10-01T00:41:53.727Z,0
2022-10-01T00:42:53.639Z,0
2022-10-01T00:43:53.657Z,0
2022-10-01T00:44:53.692Z,0
2022-10-01T00:45:53.689Z,0
2022-10-01T00:46:53.644Z,0
2022-10-01T00:47:53.646Z,0
2022-10-01T00:48:53.645Z,0
2022-10-01T00:49:55.456Z,0
2022-10-01T00:50:53.640Z,0
2022-10-01T00:51:53.643Z,0
2022-10-01T00:52:53.644Z,0
2022-10-01T00:53:53.665Z,0
2022-10-01T00:54:53.673Z,0
2022-10-01T00:55:53.651Z,0
2022-10-01T00:56:53.662Z,0
2022-10-01T00:57:53.662Z,0
2022-10-01T00:58:53.670Z,0
2022-10-01T00:59:53.680Z,0
2022-10-01T01:00:53.695Z,0
2022-10-01T01:01:53.786Z,0
2022-10-01T01:02:53.659Z,0
2022-10-01T01:03:53.661Z,0
2022-10-01T01:04:53.676Z,0
2022-10-01T01:05:53.659Z,0
2022-10-01T01:06:53.660Z,0
2022-10-01T01:07:53.683Z,0
2022-10-01T01:08:53.662Z,0
2022-10-01T01:09:53.692Z,0
2022-10-01T01:10:53.662Z,0
2022-10-01T01:11:53.673Z,0
2022-10-01T01:12:53.669Z,0
2022-10-01T01:13:53.670Z,0
2022-10-01T01:14:53.667Z,0
2022-10-01T01:15:53.736Z,0
2022-10-01T01:16:53.662Z,0
2022-10-01T01:17:53.656Z,0
2022-10-01T01:18:53.652Z,0
2022-10-01T01:19:53.673Z,0
2022-10-01T01:20:53.666Z,0
2022-10-01T01:21:53.657Z,0
2022-10-01T01:22:53.671Z,0
2022-10-01T01:23:53.666Z,0
2022-10-01T01:24:53.762Z,0
2022-10-01T01:25:53.651Z,0
2022-10-01T01:26:53.661Z,0
2022-10-01T01:27:53.727Z,0
2022-10-01T01:28:53.678Z,0
2022-10-01T01:29:53.675Z,0
2022-10-01T01:30:53.677Z,0
2022-10-01T01:31:53.665Z,0
2022-10-01T01:32:53.667Z,0
2022-10-01T01:33:53.658Z,0
2022-10-01T01:34:53.671Z,0
2022-10-01T01:35:53.665Z,0
2022-10-01T01:36:53.666Z,0
2022-10-01T01:37:53.661Z,0
2022-10-01T01:38:53.661Z,0
2022-10-01T01:39:53.686Z,0
2022-10-01T01:40:53.662Z,0
2022-10-01T01:41:53.658Z,0
2022-10-01T01:42:53.666Z,0
2022-10-01T01:43:53.665Z,0
2022-10-01T01:44:53.682Z,0
2022-10-01T01:45:53.697Z,0
2022-10-01T01:46:53.661Z,0
2022-10-01T01:47:53.661Z,0
2022-10-01T01:48:53.671Z,0
2022-10-01T01:49:53.669Z,0
2022-10-01T01:50:53.648Z,0
2022-10-01T01:51:53.639Z,0
2022-10-01T01:52:53.655Z,0
2022-10-01T01:53:53.646Z,0
2022-10-01T01:54:53.657Z,0
2022-10-01T01:55:53.655Z,0
2022-10-01T01:56:53.646Z,0
2022-10-01T01:57:53.646Z,0
2022-10-01T01:58:53.665Z,0
2022-10-01T01:59:53.663Z,0
2022-10-01T02:00:53.652Z,0
2022-10-01T02:01:53.785Z,0
2022-10-01T02:02:53.743Z,0
2022-10-01T02:03:53.658Z,0
2022-10-01T02:04:53.670Z,0
2022-10-01T02:05:53.646Z,0
2022-10-01T02:06:53.659Z,0
2022-10-01T02:07:53.652Z,0
2022-10-01T02:08:53.649Z,0
2022-10-01T02:09:53.677Z,0
2022-10-01T02:10:53.652Z,0
2022-10-01T02:11:53.662Z,0
2022-10-01T02:12:53.666Z,0
2022-10-01T02:13:53.685Z,0
2022-10-01T02:14:53.671Z,0
2022-10-01T02:15:53.747Z,0
2022-10-01T02:16:53.660Z,0
2022-10-01T02:17:53.669Z,0
2022-10-01T02:18:53.661Z,0
2022-10-01T02:19:53.678Z,0
2022-10-01T02:20:53.746Z,0
2022-10-01T02:21:53.667Z,0
2022-10-01T02:22:53.662Z,0
2022-10-01T02:23:53.665Z,0
2022-10-01T02:24:53.842Z,0
2022-10-01T02:25:53.663Z,0
2022-10-01T02:26:53.661Z,0
2022-10-01T02:27:53.711Z,0
2022-10-01T02:28:53.679Z,0
2022-10-01T02:29:53.695Z,0
2022-10-01T02:30:53.678Z,0
2022-10-01T02:31:53.664Z,0
2022-10-01T02:32:53.666Z,0
2022-10-01T02:33:53.664Z,0
2022-10-01T02:34:53.676Z,0
2022-10-01T02:35:53.661Z,0
2022-10-01T02:36:53.669Z,0
2022-10-01T02:37:53.653Z,0
2022-10-01T02:38:53.670Z,0
2022-10-01T02:39:53.678Z,0
2022-10-01T02:40:53.662Z,0
2022-10-01T02:41:53.657Z,0
2022-10-01T02:42:53.666Z,0
2022-10-01T02:43:53.679Z,0
2022-10-01T02:44:53.679Z,0
2022-10-01T02:45:53.712Z,0
2022-10-01T02:46:53.654Z,0
2022-10-01T02:47:53.662Z,0
2022-10-01T02:48:53.662Z,0
2022-10-01T02:49:53.673Z,0
2022-10-01T02:50:53.657Z,0
2022-10-01T02:51:53.668Z,0
2022-10-01T02:52:53.667Z,0
2022-10-01T02:53:53.650Z,0
2022-10-01T02:54:53.675Z,0
2022-10-01T02:55:53.666Z,0
2022-10-01T02:56:56.230Z,0
2022-10-01T02:57:53.659Z,0
2022-10-01T02:58:53.672Z,0
2022-10-01T02:59:53.674Z,0
2022-10-01T03:00:53.659Z,0
2022-10-01T03:01:53.786Z,0
2022-10-01T03:02:53.758Z,0
2022-10-01T03:03:53.690Z,0
2022-10-01T03:04:53.657Z,0
2022-10-01T03:05:53.646Z,0
2022-10-01T03:06:53.648Z,0
2022-10-01T03:07:53.642Z,0
2022-10-01T03:08:53.666Z,0
2022-10-01T03:09:53.662Z,0
2022-10-01T03:10:53.649Z,0
2022-10-01T03:11:53.650Z,0
2022-10-01T03:12:53.644Z,0
2022-10-01T03:13:53.666Z,0
2022-10-01T03:14:53.666Z,0
2022-10-01T03:15:53.666Z,0
2022-10-01T03:16:53.644Z,0
2022-10-01T03:17:53.665Z,0
2022-10-01T03:18:53.654Z,0
2022-10-01T03:19:53.668Z,0
2022-10-01T03:20:53.657Z,0
2022-10-01T03:21:53.663Z,0
2022-10-01T03:22:53.667Z,0
2022-10-01T03:23:53.656Z,0
2022-10-01T03:24:53.679Z,0
2022-10-01T03:25:53.664Z,0
2022-10-01T03:26:53.664Z,0
2022-10-01T03:27:53.721Z,0
2022-10-01T03:28:53.671Z,0
2022-10-01T03:29:53.673Z,0
2022-10-01T03:30:53.778Z,0
2022-10-01T03:31:53.721Z,0
2022-10-01T03:32:53.663Z,0
2022-10-01T03:33:53.696Z,0
2022-10-01T03:34:53.676Z,0
2022-10-01T03:35:53.667Z,0
2022-10-01T03:36:53.667Z,0
2022-10-01T03:37:53.693Z,0
2022-10-01T03:38:53.657Z,0
2022-10-01T03:39:53.672Z,0
2022-10-01T03:40:53.657Z,0
2022-10-01T03:41:53.659Z,0
2022-10-01T03:42:53.656Z,0
2022-10-01T03:43:58.316Z,0
2022-10-01T03:44:53.678Z,0
2022-10-01T03:45:53.769Z,0
2022-10-01T03:46:53.656Z,0
2022-10-01T03:47:53.664Z,0
2022-10-01T03:48:53.664Z,0
2022-10-01T03:49:53.676Z,0
2022-10-01T03:50:53.657Z,0
2022-10-01T03:51:53.655Z,0
2022-10-01T03:52:53.663Z,0
2022-10-01T03:53:53.663Z,0
2022-10-01T03:54:53.676Z,0
2022-10-01T03:55:53.660Z,0
2022-10-01T03:56:53.664Z,0
2022-10-01T03:57:53.660Z,0
2022-10-01T03:58:53.676Z,0
2022-10-01T03:59:53.706Z,0
2022-10-01T04:00:53.649Z,0
2022-10-01T04:01:53.718Z,0
2022-10-01T04:02:53.759Z,0
2022-10-01T04:03:53.661Z,0
2022-10-01T04:04:53.663Z,0
2022-10-01T04:05:53.713Z,0
2022-10-01T04:06:53.665Z,0
2022-10-01T04:07:53.659Z,0
2022-10-01T04:08:53.681Z,0
2022-10-01T04:09:53.673Z,0
2022-10-01T04:10:53.651Z,0
2022-10-01T04:11:53.698Z,0
2022-10-01T04:12:53.669Z,0
2022-10-01T04:13:53.679Z,0
2022-10-01T04:14:53.700Z,0
2022-10-01T04:15:53.676Z,0
2022-10-01T04:16:53.643Z,0
2022-10-01T04:17:53.648Z,0
2022-10-01T04:18:53.648Z,0
2022-10-01T04:19:53.656Z,0
2022-10-01T04:20:53.647Z,0
2022-10-01T04:21:53.649Z,0
2022-10-01T04:22:53.646Z,0
2022-10-01T04:23:53.649Z,0
2022-10-01T04:24:53.680Z,0
2022-10-01T04:25:53.646Z,0
2022-10-01T04:26:53.652Z,0
2022-10-01T04:27:53.673Z,0
2022-10-01T04:28:53.660Z,0
2022-10-01T04:29:53.664Z,0
2022-10-01T04:30:53.662Z,0
2022-10-01T04:31:53.719Z,0
2022-10-01T04:32:53.652Z,0
2022-10-01T04:33:53.657Z,0
2022-10-01T04:34:53.733Z,1
2022-10-01T04:35:53.663Z,1
2022-10-01T04:36:53.675Z,1
2022-10-01T04:37:53.653Z,3
2022-10-01T04:38:57.926Z,5
2022-10-01T04:39:53.674Z,5
2022-10-01T04:40:53.660Z,5
2022-10-01T04:41:53.662Z,11
2022-10-01T04:42:53.665Z,14
2022-10-01T04:43:53.681Z,16
2022-10-01T04:44:53.670Z,20
2022-10-01T04:45:53.672Z,23
2022-10-01T04:46:53.691Z,29
2022-10-01T04:47:53.662Z,35
2022-10-01T04:48:53.657Z,40
2022-10-01T04:49:53.685Z,47
2022-10-01T04:50:53.662Z,47
2022-10-01T04:51:53.682Z,64
2022-10-01T04:52:53.661Z,77
2022-10-01T04:53:53.659Z,86
2022-10-01T04:54:53.679Z,99
2022-10-01T04:55:53.655Z,99
2022-10-01T04:56:53.669Z,129
2022-10-01T04:57:53.662Z,145
2022-10-01T04:58:53.677Z,164
2022-10-01T04:59:53.675Z,180
2022-10-01T05:00:55.616Z,200
2022-10-01T05:01:53.706Z,221
2022-10-01T05:02:53.656Z,239
2022-10-01T05:03:53.680Z,258
2022-10-01T05:04:53.688Z,258
2022-10-01T05:05:53.660Z,296
2022-10-01T05:06:53.664Z,296
2022-10-01T05:07:53.661Z,340
2022-10-01T05:08:53.662Z,340
2022-10-01T05:09:53.671Z,392
2022-10-01T05:10:53.698Z,420
2022-10-01T05:11:53.647Z,455
2022-10-01T05:12:53.662Z,486
2022-10-01T05:13:53.730Z,517
2022-10-01T05:14:53.673Z,549
2022-10-01T05:15:53.706Z,576
2022-10-01T05:16:53.672Z,608
2022-10-01T05:17:53.657Z,634
2022-10-01T05:18:53.661Z,663
2022-10-01T05:19:53.707Z,693
2022-10-01T05:20:53.661Z,733
2022-10-01T05:21:53.656Z,768
2022-10-01T05:22:53.649Z,807
2022-10-01T05:23:53.646Z,847
2022-10-01T05:24:53.711Z,893
2022-10-01T05:25:53.647Z,938
2022-10-01T05:26:53.644Z,978
2022-10-01T05:27:53.667Z,1019
2022-10-01T05:28:53.657Z,1052
2022-10-01T05:29:53.661Z,1091
2022-10-01T05:30:53.648Z,1118
2022-10-01T05:31:53.702Z,1159
2022-10-01T05:32:53.646Z,1229
2022-10-01T05:33:53.646Z,1312
2022-10-01T05:34:53.859Z,1467
2022-10-01T05:35:53.650Z,1704
2022-10-01T05:36:53.643Z,2003
2022-10-01T05:37:53.658Z,2410
2022-10-01T05:38:53.659Z,2499
2022-10-01T05:39:53.656Z,2532
2022-10-01T05:40:53.657Z,2235
2022-10-01T05:41:53.646Z,1806
2022-10-01T05:42:53.660Z,1819
2022-10-01T05:43:53.675Z,1892
2022-10-01T05:44:53.743Z,1944
2022-10-01T05:45:53.710Z,2475
2022-10-01T05:46:53.655Z,2108
2022-10-01T05:47:53.661Z,2189
2022-10-01T05:48:53.665Z,2344
2022-10-01T05:49:53.677Z,2228
2022-10-01T05:50:53.665Z,2493
2022-10-01T05:51:53.658Z,3011
2022-10-01T05:52:53.665Z,3837
2022-10-01T05:53:53.656Z,3738
2022-10-01T05:54:53.673Z,3299
2022-10-01T05:55:53.664Z,3859
2022-10-01T05:56:53.659Z,4351
2022-10-01T05:57:53.660Z,4185
2022-10-01T05:58:53.672Z,3997
2022-10-01T05:59:53.679Z,3850
2022-10-01T06:00:53.663Z,5278
2022-10-01T06:01:53.845Z,5278
2022-10-01T06:02:53.759Z,5293
2022-10-01T06:03:53.664Z,5400
2022-10-01T06:04:53.677Z,5592
2022-10-01T06:05:53.662Z,5948
2022-10-01T06:06:53.660Z,6078
2022-10-01T06:07:53.681Z,6401
2022-10-01T06:08:53.656Z,6401
2022-10-01T06:09:53.683Z,5802
2022-10-01T06:10:53.670Z,6650
2022-10-01T06:11:53.659Z,6714
2022-10-01T06:12:53.665Z,4694
2022-10-01T06:13:53.673Z,3487
2022-10-01T06:14:53.676Z,3446
2022-10-01T06:15:53.663Z,3496
2022-10-01T06:16:53.699Z,3586
2022-10-01T06:17:53.657Z,3730
2022-10-01T06:18:53.664Z,3726
2022-10-01T06:19:53.676Z,3776
2022-10-01T06:20:53.664Z,3865
2022-10-01T06:21:53.654Z,3865
2022-10-01T06:22:53.659Z,4407
2022-10-01T06:23:53.671Z,4856
2022-10-01T06:24:56.590Z,4445
2022-10-01T06:25:53.665Z,5153
2022-10-01T06:26:53.665Z,5275
2022-10-01T06:27:53.712Z,4891
2022-10-01T06:28:53.675Z,7658
2022-10-01T06:29:53.676Z,8379
2022-10-01T06:30:53.646Z,8379
2022-10-01T06:31:53.680Z,8379
2022-10-01T06:32:53.650Z,8379
2022-10-01T06:33:53.658Z,10038
2022-10-01T06:34:53.813Z,10038
2022-10-01T06:35:53.647Z,10038
2022-10-01T06:36:53.644Z,10666
2022-10-01T06:37:53.666Z,12909
2022-10-01T06:38:53.641Z,12909
2022-10-01T06:39:53.683Z,8301
2022-10-01T06:40:53.641Z,8301
2022-10-01T06:41:53.642Z,8301
2022-10-01T06:42:56.677Z,9289
2022-10-01T06:43:53.658Z,8707
2022-10-01T06:44:53.658Z,8869
2022-10-01T06:45:53.700Z,8036
2022-10-01T06:46:53.655Z,8036
2022-10-01T06:47:53.649Z,8036
2022-10-01T06:48:53.648Z,6716
2022-10-01T06:49:53.655Z,6436
2022-10-01T06:50:53.652Z,5745
2022-10-01T06:51:53.651Z,5704
2022-10-01T06:52:53.666Z,5350
2022-10-01T06:53:53.659Z,5433
2022-10-01T06:54:53.670Z,5430
2022-10-01T06:55:53.650Z,5293
2022-10-01T06:56:53.661Z,5413
2022-10-01T06:57:53.654Z,5395
2022-10-01T06:58:53.671Z,5743
2022-10-01T06:59:53.678Z,5417
2022-10-01T07:00:53.727Z,5431
2022-10-01T07:01:56.290Z,5431
2022-10-01T07:02:53.660Z,5431
2022-10-01T07:03:53.657Z,5885
2022-10-01T07:04:53.682Z,7037
2022-10-01T07:05:53.660Z,7393
2022-10-01T07:06:53.664Z,7730
2022-10-01T07:07:53.670Z,7774
2022-10-01T07:08:53.658Z,6537
2022-10-01T07:09:53.676Z,5872
2022-10-01T07:10:53.657Z,5291
2022-10-01T07:11:53.658Z,5291
2022-10-01T07:12:53.661Z,5444
2022-10-01T07:13:54.529Z,5194
2022-10-01T07:14:53.666Z,5078
2022-10-01T07:15:53.662Z,5055
2022-10-01T07:16:53.727Z,5076
2022-10-01T07:17:53.657Z,5159
2022-10-01T07:18:53.662Z,5424
2022-10-01T07:19:53.677Z,5435
2022-10-01T07:20:53.664Z,5603
2022-10-01T07:21:53.663Z,5238
2022-10-01T07:22:53.656Z,5396
2022-10-01T07:23:53.664Z,5273
2022-10-01T07:24:53.673Z,5247
2022-10-01T07:25:53.727Z,5205
2022-10-01T07:26:53.660Z,5352
2022-10-01T07:27:53.709Z,5509
2022-10-01T07:28:53.673Z,5817
2022-10-01T07:29:53.666Z,6023
2022-10-01T07:30:53.657Z,6300
2022-10-01T07:31:53.702Z,6224
2022-10-01T07:32:53.663Z,6331
2022-10-01T07:33:53.656Z,6747
2022-10-01T07:34:53.674Z,6993
2022-10-01T07:35:53.660Z,7223
2022-10-01T07:36:53.666Z,7409
2022-10-01T07:37:53.668Z,7026
2022-10-01T07:38:53.663Z,7435
2022-10-01T07:39:53.665Z,7435
2022-10-01T07:40:53.643Z,8935
2022-10-01T07:41:53.657Z,9715
2022-10-01T07:42:53.643Z,10460
2022-10-01T07:43:53.737Z,7899
2022-10-01T07:44:53.714Z,7750
2022-10-01T07:48:53.652Z,9949
2022-10-01T07:49:53.694Z,10371
2022-10-01T07:50:53.726Z,10911
2022-10-01T07:51:53.647Z,10880
2022-10-01T07:52:53.656Z,11785
2022-10-01T07:53:53.668Z,12487
2022-10-01T07:54:53.648Z,11720
2022-10-01T07:55:53.668Z,11720
2022-10-01T07:56:53.657Z,11720
2022-10-01T07:57:53.661Z,10755
2022-10-01T07:58:53.662Z,10755
2022-10-01T07:59:55.890Z,10755
2022-10-01T08:00:53.691Z,10755
2022-10-01T08:01:53.730Z,10755
2022-10-01T08:02:53.671Z,10755
2022-10-01T08:03:53.672Z,10755
2022-10-01T08:04:53.651Z,10755
2022-10-01T08:05:53.706Z,10755
2022-10-01T08:06:53.661Z,10755
2022-10-01T08:07:53.655Z,10755
2022-10-01T08:08:53.663Z,10755
2022-10-01T08:09:53.662Z,10755
2022-10-01T08:10:53.676Z,10755
2022-10-01T08:11:53.672Z,6368
2022-10-01T08:12:53.659Z,6113
2022-10-01T08:13:53.670Z,5983
2022-10-01T08:14:53.667Z,5761
2022-10-01T08:15:53.702Z,5671
2022-10-01T08:16:53.718Z,5599
2022-10-01T08:17:53.662Z,5581
2022-10-01T08:18:53.669Z,5605
2022-10-01T08:19:53.663Z,5428
2022-10-01T08:20:53.672Z,5367
2022-10-01T08:21:53.671Z,5302
2022-10-01T08:22:53.672Z,5297
2022-10-01T08:23:53.679Z,5297
2022-10-01T08:24:53.708Z,5310
2022-10-01T08:25:53.748Z,5328
2022-10-01T08:26:53.674Z,5306
2022-10-01T08:27:53.681Z,5310
2022-10-01T08:28:53.676Z,5278
2022-10-01T08:29:53.673Z,5229
2022-10-01T08:30:53.661Z,5151
2022-10-01T08:31:53.730Z,5066
2022-10-01T08:32:53.659Z,4991
2022-10-01T08:33:53.677Z,4917
2022-10-01T08:34:56.493Z,4847
2022-10-01T08:35:53.664Z,4718
2022-10-01T08:36:53.666Z,4727
2022-10-01T08:37:53.673Z,4576
2022-10-01T08:38:53.680Z,4447
2022-10-01T08:39:53.669Z,4405
2022-10-01T08:40:53.679Z,4467
2022-10-01T08:41:53.668Z,4456
2022-10-01T08:42:53.704Z,4587
2022-10-01T08:43:53.676Z,4689
2022-10-01T08:44:53.662Z,4749
2022-10-01T08:45:53.725Z,4762
2022-10-01T08:46:53.660Z,4810
2022-10-01T08:47:53.655Z,4698
2022-10-01T08:48:56.938Z,4628
2022-10-01T08:49:53.659Z,4595
2022-10-01T08:50:53.651Z,4421
2022-10-01T08:51:53.663Z,4226
2022-10-01T08:52:53.648Z,4381
2022-10-01T08:53:53.684Z,4237
2022-10-01T08:54:53.654Z,4244
2022-10-01T08:55:53.666Z,4095
2022-10-01T08:56:53.654Z,3620
2022-10-01T08:57:53.653Z,3819
2022-10-01T08:58:53.660Z,3717
2022-10-01T08:59:53.655Z,3973
2022-10-01T09:00:53.699Z,3507
2022-10-01T09:01:53.659Z,3553
2022-10-01T09:02:53.646Z,3358
2022-10-01T09:03:53.669Z,3708
2022-10-01T09:04:55.901Z,3614
2022-10-01T09:05:53.673Z,3802
2022-10-01T09:06:53.666Z,3850
2022-10-01T09:07:53.701Z,3387
2022-10-01T09:08:53.671Z,3430
2022-10-01T09:09:53.671Z,3338
2022-10-01T09:10:53.668Z,3338
2022-10-01T09:11:53.663Z,3146
2022-10-01T09:12:53.664Z,2668
2022-10-01T09:13:53.669Z,2993
2022-10-01T09:14:53.654Z,2886
2022-10-01T09:15:53.668Z,3446
2022-10-01T09:16:53.722Z,3572
2022-10-01T09:17:53.659Z,3590
2022-10-01T09:18:53.673Z,3467
2022-10-01T09:19:53.667Z,3485
2022-10-01T09:20:53.668Z,3183
2022-10-01T09:21:53.670Z,3940
2022-10-01T09:22:53.657Z,3555
2022-10-01T09:23:53.687Z,3760
2022-10-01T09:24:53.665Z,3573
2022-10-01T09:25:53.675Z,3712
2022-10-01T09:26:53.668Z,3800
2022-10-01T09:27:53.711Z,3809
2022-10-01T09:28:53.672Z,3822
2022-10-01T09:29:53.666Z,3848
2022-10-01T09:30:53.669Z,3787
2022-10-01T09:31:53.809Z,3892
2022-10-01T09:32:53.686Z,3957
2022-10-01T09:33:53.696Z,4040
2022-10-01T09:34:53.668Z,4149
2022-10-01T09:35:53.652Z,4268
2022-10-01T09:36:53.662Z,4377
2022-10-01T09:37:53.667Z,4477
2022-10-01T09:38:53.702Z,4515
2022-10-01T09:39:53.668Z,4587
2022-10-01T09:40:53.678Z,4654
2022-10-01T09:41:53.670Z,4757
2022-10-01T09:42:53.670Z,4831
2022-10-01T09:43:53.678Z,4888
2022-10-01T09:44:53.663Z,4947
2022-10-01T09:45:53.731Z,5024
2022-10-01T09:46:53.666Z,5137
2022-10-01T09:47:53.672Z,5260
2022-10-01T09:48:53.674Z,5387
2022-10-01T09:49:53.661Z,5529
2022-10-01T09:50:53.662Z,5651
2022-10-01T09:51:53.668Z,5817
2022-10-01T09:52:53.661Z,6019
2022-10-01T09:53:53.689Z,6215
2022-10-01T09:54:53.665Z,6305
2022-10-01T09:55:53.672Z,6395
2022-10-01T09:56:53.657Z,6381
2022-10-01T09:57:53.652Z,6344
2022-10-01T09:58:53.665Z,6353
2022-10-01T09:59:53.658Z,6336
2022-10-01T10:00:53.647Z,6388
2022-10-01T10:01:53.764Z,6349
2022-10-01T10:02:53.725Z,6353
2022-10-01T10:03:53.675Z,6373
2022-10-01T10:04:53.656Z,6419
2022-10-01T10:05:53.695Z,6506
2022-10-01T10:06:53.647Z,6587
2022-10-01T10:07:53.658Z,6700
2022-10-01T10:08:53.670Z,6810
2022-10-01T10:09:53.650Z,6832
2022-10-01T10:10:53.677Z,6832
2022-10-01T10:11:53.651Z,6956
2022-10-01T10:12:53.654Z,7085
2022-10-01T10:13:53.669Z,7136
2022-10-01T10:14:53.652Z,7324
2022-10-01T10:15:53.745Z,7570
2022-10-01T10:16:53.653Z,7787
2022-10-01T10:17:53.648Z,7995
2022-10-01T10:18:53.664Z,8252
2022-10-01T10:19:53.720Z,8309
2022-10-01T10:20:53.671Z,8607
2022-10-01T10:21:53.667Z,8943
2022-10-01T10:22:53.659Z,8956
2022-10-01T10:23:53.671Z,9063
2022-10-01T10:24:53.681Z,9002
2022-10-01T10:25:53.672Z,8965
2022-10-01T10:26:53.664Z,8635
2022-10-01T10:27:53.751Z,8596
2022-10-01T10:28:53.674Z,8460
2022-10-01T10:29:53.659Z,8410
2022-10-01T10:30:53.665Z,8843
2022-10-01T10:31:53.712Z,8856
2022-10-01T10:32:53.705Z,8978
2022-10-01T10:33:53.682Z,7947
2022-10-01T10:34:53.662Z,7964
2022-10-01T10:35:53.671Z,9022
2022-10-01T10:36:53.669Z,9179
2022-10-01T10:37:53.667Z,8793
2022-10-01T10:38:53.759Z,7278
2022-10-01T10:39:53.668Z,7085
2022-10-01T10:40:53.675Z,6038
2022-10-01T10:41:53.658Z,5396
2022-10-01T10:42:53.660Z,5313
2022-10-01T10:43:53.670Z,5476
2022-10-01T10:44:53.664Z,5795
2022-10-01T10:45:53.703Z,6161
2022-10-01T10:46:53.795Z,7133
2022-10-01T10:47:53.645Z,7424
2022-10-01T10:48:53.671Z,8198
2022-10-01T10:49:53.665Z,7031
2022-10-01T10:50:53.663Z,5983
2022-10-01T10:51:53.672Z,5295
2022-10-01T10:52:53.663Z,5019
2022-10-01T10:53:53.680Z,4895
2022-10-01T10:54:53.664Z,4884
2022-10-01T10:55:53.677Z,4729
2022-10-01T10:56:53.829Z,4453
2022-10-01T10:57:57.287Z,4327
2022-10-01T10:58:53.673Z,4058
2022-10-01T10:59:53.666Z,4128
2022-10-01T11:00:53.664Z,4036
2022-10-01T11:01:53.750Z,3907
2022-10-01T11:02:53.670Z,3868
2022-10-01T11:03:53.675Z,3914
2022-10-01T11:04:53.666Z,3968
2022-10-01T11:05:53.663Z,3992
2022-10-01T11:06:53.661Z,3938
2022-10-01T11:07:53.663Z,4038
2022-10-01T11:08:53.666Z,4029
2022-10-01T11:09:53.657Z,3903
2022-10-01T11:10:53.757Z,3903
2022-10-01T11:11:53.670Z,3638
2022-10-01T11:12:53.653Z,3673
2022-10-01T11:13:53.662Z,3616
2022-10-01T11:14:53.646Z,3577
2022-10-01T11:15:53.707Z,3513
2022-10-01T11:16:53.650Z,3424
2022-10-01T11:17:53.652Z,3400
2022-10-01T11:18:53.661Z,3444
2022-10-01T11:19:53.647Z,3461
2022-10-01T11:20:53.646Z,3489
2022-10-01T11:21:53.679Z,3522
2022-10-01T11:22:53.656Z,3559
2022-10-01T11:23:53.669Z,3592
2022-10-01T11:24:53.650Z,3572
2022-10-01T11:25:53.665Z,3514
2022-10-01T11:26:53.692Z,3494
2022-10-01T11:27:53.706Z,3522
2022-10-01T11:28:53.679Z,3557
2022-10-01T11:29:53.664Z,3572
2022-10-01T11:30:53.657Z,3581
2022-10-01T11:31:53.664Z,3597
2022-10-01T11:32:53.671Z,3612
2022-10-01T11:33:53.673Z,3656
2022-10-01T11:34:53.670Z,3704
2022-10-01T11:35:53.673Z,3706
2022-10-01T11:36:55.519Z,3754
2022-10-01T11:37:53.732Z,3808
2022-10-01T11:38:53.676Z,3752
2022-10-01T11:39:53.670Z,3837
2022-10-01T11:40:53.669Z,3695
2022-10-01T11:41:53.668Z,3603
2022-10-01T11:42:53.662Z,3566
2022-10-01T11:43:53.675Z,3468
2022-10-01T11:44:57.371Z,3328
2022-10-01T11:45:53.668Z,3245
2022-10-01T11:46:53.745Z,3190
2022-10-01T11:47:53.666Z,3172
2022-10-01T11:48:53.675Z,3231
2022-10-01T11:49:53.668Z,3247
2022-10-01T11:50:53.662Z,3234
2022-10-01T11:51:53.665Z,3247
2022-10-01T11:52:53.674Z,3264
2022-10-01T11:53:53.682Z,3312
2022-10-01T11:54:56.197Z,3384
2022-10-01T11:55:53.675Z,3452
2022-10-01T11:56:53.659Z,3540
2022-10-01T11:57:53.674Z,3632
2022-10-01T11:58:53.675Z,3730
2022-10-01T11:59:53.666Z,3800
2022-10-01T12:00:53.693Z,3826
2022-10-01T12:01:53.755Z,3861
2022-10-01T12:02:53.674Z,3859
2022-10-01T12:03:53.680Z,3891
2022-10-01T12:04:53.673Z,3852
2022-10-01T12:05:53.730Z,3778
2022-10-01T12:06:53.672Z,3714
2022-10-01T12:07:53.669Z,3647
2022-10-01T12:08:53.677Z,3583
2022-10-01T12:09:53.667Z,3655
2022-10-01T12:10:53.738Z,3655
2022-10-01T12:11:53.658Z,3671
2022-10-01T12:12:53.660Z,3594
2022-10-01T12:13:53.704Z,3526
2022-10-01T12:14:53.669Z,3614
2022-10-01T12:15:53.691Z,3817
2022-10-01T12:16:53.654Z,3920
2022-10-01T12:17:53.665Z,3935
2022-10-01T12:18:53.675Z,3785
2022-10-01T12:19:53.672Z,3518
2022-10-01T12:20:53.653Z,3365
2022-10-01T12:21:53.672Z,3286
2022-10-01T12:22:53.650Z,3275
2022-10-01T12:23:53.663Z,3087
2022-10-01T12:24:53.654Z,2897
2022-10-01T12:25:53.663Z,2869
2022-10-01T12:26:53.666Z,2908
2022-10-01T12:27:53.716Z,2945
2022-10-01T12:28:56.684Z,2871
2022-10-01T12:29:53.646Z,2735
2022-10-01T12:30:53.652Z,2893
2022-10-01T12:31:53.646Z,2656
2022-10-01T12:32:53.668Z,2527
2022-10-01T12:33:53.662Z,2556
2022-10-01T12:34:54.508Z,2528
2022-10-01T12:35:53.645Z,2619
2022-10-01T12:36:53.661Z,2702
2022-10-01T12:37:53.666Z,2816
2022-10-01T12:38:53.663Z,2985
2022-10-01T12:39:53.668Z,2985
2022-10-01T12:40:53.675Z,2797
2022-10-01T12:41:53.678Z,2622
2022-10-01T12:42:53.672Z,2530
2022-10-01T12:43:53.680Z,2512
2022-10-01T12:44:53.766Z,2514
2022-10-01T12:45:53.762Z,2469
2022-10-01T12:46:53.659Z,2420
2022-10-01T12:47:53.669Z,2445
2022-10-01T12:48:53.677Z,2322
2022-10-01T12:49:53.672Z,2418
2022-10-01T12:50:53.658Z,2480
2022-10-01T12:51:53.671Z,2482
2022-10-01T12:52:53.665Z,2488
2022-10-01T12:53:53.706Z,2433
2022-10-01T12:54:53.660Z,2414
2022-10-01T12:55:53.708Z,2351
2022-10-01T12:56:53.751Z,2296
2022-10-01T12:57:53.668Z,2233
2022-10-01T12:58:53.683Z,2149
2022-10-01T12:59:53.663Z,2044
2022-10-01T13:00:53.703Z,1953
2022-10-01T13:01:53.814Z,1881
2022-10-01T13:02:53.664Z,1824
2022-10-01T13:03:53.680Z,1824
2022-10-01T13:04:53.668Z,1752
2022-10-01T13:05:53.657Z,1708
2022-10-01T13:06:53.662Z,1690
2022-10-01T13:07:53.668Z,1690
2022-10-01T13:08:53.682Z,1719
2022-10-01T13:09:53.668Z,1752
2022-10-01T13:10:53.679Z,1752
2022-10-01T13:11:53.661Z,1795
2022-10-01T13:12:53.663Z,1773
2022-10-01T13:13:53.668Z,1745
2022-10-01T13:14:53.664Z,1730
2022-10-01T13:15:53.717Z,1743
2022-10-01T13:16:53.668Z,1775
2022-10-01T13:17:53.660Z,1769
2022-10-01T13:18:53.673Z,1786
2022-10-01T13:19:53.662Z,1813
2022-10-01T13:20:53.662Z,1833
2022-10-01T13:21:53.667Z,1813
2022-10-01T13:22:53.673Z,1813
2022-10-01T13:23:53.850Z,1819
2022-10-01T13:24:53.674Z,1821
2022-10-01T13:25:53.671Z,1789
2022-10-01T13:26:53.651Z,1758
2022-10-01T13:27:53.691Z,1767
2022-10-01T13:28:53.667Z,1775
2022-10-01T13:29:53.657Z,1786
2022-10-01T13:30:53.662Z,1813
2022-10-01T13:31:53.670Z,1817
2022-10-01T13:32:53.705Z,1856
2022-10-01T13:33:53.666Z,1894
2022-10-01T13:34:53.646Z,1869
2022-10-01T13:35:53.644Z,1821
2022-10-01T13:36:53.658Z,1795
2022-10-01T13:37:53.651Z,1808
2022-10-01T13:38:53.667Z,1824
2022-10-01T13:39:53.654Z,1841
2022-10-01T13:40:53.663Z,1841
2022-10-01T13:41:53.685Z,1889
2022-10-01T13:42:53.712Z,1891
2022-10-01T13:43:53.667Z,1915
2022-10-01T13:44:53.692Z,1939
2022-10-01T13:45:53.781Z,1929
2022-10-01T13:46:53.667Z,1926
2022-10-01T13:47:53.650Z,1946
2022-10-01T13:48:53.668Z,1977
2022-10-01T13:49:53.670Z,1977
2022-10-01T13:50:53.671Z,2090